createdAt,value
2018-06-23T00:00:10.651Z,24.8
2018-06-23T00:01:00.983Z,24.8
2018-06-23T00:01:50.576Z,24.8
2018-06-23T00:02:41.214Z,24.8
2018-06-23T00:03:30.666Z,24.8
2018-06-23T00:04:21.044Z,24.8
2018-06-23T00:05:10.460Z,24.8
2018-06-23T00:06:00.869Z,24.8
2018-06-23T00:06:50.718Z,24.8
2018-06-23T00:07:40.776Z,24.8
2018-06-23T00:08:30.729Z,24.8
2018-06-23T00:09:21.397Z,24.8
2018-06-23T00:10:12.071Z,24.8
2018-06-23T00:11:01.243Z,24.8
2018-06-23T00:11:51.541Z,24.8
2018-06-23T00:12:41.317Z,24.8
2018-06-23T00:13:30.860Z,24.8
2018-06-23T00:14:21.269Z,24.8
2018-06-23T00:15:11.837Z,24.7
2018-06-23T00:16:01.367Z,24.8
2018-06-23T00:16:51.412Z,24.7
2018-06-23T00:17:42.356Z,24.7
2018-06-23T00:18:31.232Z,24.8
2018-06-23T00:19:22.162Z,24.7
2018-06-23T00:20:12.496Z,24.8
2018-06-23T00:21:01.440Z,24.8
2018-06-23T00:21:51.822Z,24.8
2018-06-23T00:22:42.139Z,24.7
2018-06-23T00:23:30.794Z,24.8
2018-06-23T00:24:22.282Z,24.7
2018-06-23T00:25:12.020Z,24.8
2018-06-23T00:26:02.924Z,24.7
2018-06-23T00:26:52.125Z,24.7
2018-06-23T00:27:41.369Z,24.8
2018-06-23T00:28:32.300Z,24.7
2018-06-23T00:29:22.341Z,24.7
2018-06-23T00:30:12.406Z,24.8
2018-06-23T00:31:02.748Z,24.7
2018-06-23T00:31:53.428Z,24.7
2018-06-23T00:32:42.851Z,24.7
2018-06-23T00:33:32.433Z,24.7
2018-06-23T00:34:22.708Z,24.8
2018-06-23T00:35:13.683Z,24.8
2018-06-23T00:36:03.397Z,24.7
2018-06-23T00:36:53.863Z,24.8
2018-06-23T00:37:43.539Z,24.8
2018-06-23T00:38:33.364Z,24.7
2018-06-23T00:39:22.835Z,24.7
2018-06-23T00:40:13.714Z,24.7
2018-06-23T00:41:03.213Z,24.7
2018-06-23T00:41:53.565Z,24.7
2018-06-23T00:42:43.933Z,24.7
2018-06-23T00:43:33.927Z,24.7
2018-06-23T00:44:24.616Z,24.7
2018-06-23T00:45:14.655Z,24.7
2018-06-23T00:46:04.445Z,24.7
2018-06-23T00:46:54.833Z,24.7
2018-06-23T00:47:44.574Z,24.7
2018-06-23T00:48:34.079Z,24.7
2018-06-23T00:49:23.322Z,24.7
2018-06-23T00:50:14.207Z,24.7
2018-06-23T00:51:04.251Z,24.7
2018-06-23T00:51:53.851Z,24.7
2018-06-23T00:52:44.390Z,24.7
2018-06-23T00:53:33.892Z,24.7
2018-06-23T00:54:24.643Z,24.7
2018-06-23T00:55:15.444Z,24.7
2018-06-23T00:56:03.625Z,24.7
2018-06-23T00:56:53.675Z,24.7
2018-06-23T00:57:45.662Z,24.7
2018-06-23T00:58:33.324Z,24.7
2018-06-23T00:59:25.244Z,24.7
2018-06-23T01:00:14.257Z,24.7
2018-06-23T01:01:05.856Z,24.7
2018-06-23T01:01:55.640Z,24.7
2018-06-23T01:02:44.971Z,24.7
2018-06-23T01:03:35.275Z,24.7
2018-06-23T01:04:25.537Z,24.7
2018-06-23T01:05:15.115Z,24.7
2018-06-23T01:06:04.303Z,24.7
2018-06-23T01:06:55.481Z,24.7
2018-06-23T01:07:44.470Z,24.7
2018-06-23T01:08:34.564Z,24.7
2018-06-23T01:09:25.863Z,24.7
2018-06-23T01:10:14.749Z,24.7
2018-06-23T01:11:05.554Z,24.7
2018-06-23T01:11:54.889Z,24.7
2018-06-23T01:12:44.864Z,24.7
2018-06-23T01:13:35.513Z,24.7
2018-06-23T01:14:25.308Z,24.7
2018-06-23T01:15:14.809Z,24.7
2018-06-23T01:16:06.738Z,24.6
2018-06-23T01:16:55.447Z,24.7
2018-06-23T01:17:46.648Z,24.7
2018-06-23T01:18:35.861Z,24.7
2018-06-23T01:19:26.280Z,24.7
2018-06-23T01:20:15.741Z,24.7
2018-06-23T01:21:05.523Z,24.7
2018-06-23T01:21:56.702Z,24.7
2018-06-23T01:22:46.546Z,24.7
2018-06-23T01:23:36.852Z,24.7
2018-06-23T01:24:26.368Z,24.7
2018-06-23T01:25:16.988Z,24.7
2018-06-23T01:26:06.988Z,24.7
2018-06-23T01:26:55.125Z,24.7
2018-06-23T01:27:47.184Z,24.7
2018-06-23T01:28:36.111Z,24.7
2018-06-23T01:29:26.472Z,24.7
2018-06-23T01:30:16.793Z,24.7
2018-06-23T01:31:07.387Z,24.7
2018-06-23T01:31:57.763Z,24.7
2018-06-23T01:32:46.906Z,24.6
2018-06-23T01:33:37.589Z,24.7
2018-06-23T01:34:27.887Z,24.7
2018-06-23T01:35:17.541Z,24.7
2018-06-23T01:36:08.076Z,24.7
2018-06-23T01:36:57.042Z,24.7
2018-06-23T01:37:47.669Z,24.7
2018-06-23T01:38:36.572Z,24.7
2018-06-23T01:39:26.678Z,24.7
2018-06-23T01:40:17.011Z,24.6
2018-06-23T01:41:08.215Z,24.6
2018-06-23T01:41:56.894Z,24.7
2018-06-23T01:42:46.925Z,24.6
2018-06-23T01:43:38.651Z,24.6
2018-06-23T01:44:28.867Z,24.7
2018-06-23T01:45:17.112Z,24.6
2018-06-23T01:46:06.885Z,24.7
2018-06-23T01:46:56.929Z,24.6
2018-06-23T01:47:46.974Z,24.6
2018-06-23T01:48:38.217Z,24.6
2018-06-23T01:49:28.571Z,24.6
2018-06-23T01:50:17.580Z,24.6
2018-06-23T01:51:08.708Z,24.6
2018-06-23T01:51:59.271Z,24.6
2018-06-23T01:52:47.971Z,24.6
2018-06-23T01:53:38.609Z,24.6
2018-06-23T01:54:27.509Z,24.6
2018-06-23T01:55:18.625Z,24.6
2018-06-23T01:56:09.219Z,24.7
2018-06-23T01:56:59.495Z,24.7
2018-06-23T01:57:49.663Z,24.6
2018-06-23T01:58:39.289Z,24.6
2018-06-23T01:59:29.276Z,24.6
2018-06-23T02:00:18.254Z,24.6
2018-06-23T02:01:09.662Z,24.6
2018-06-23T02:01:58.647Z,24.6
2018-06-23T02:02:50.656Z,24.6
2018-06-23T02:03:39.810Z,24.6
2018-06-23T02:04:29.360Z,24.6
2018-06-23T02:05:19.187Z,24.6
2018-06-23T02:06:08.710Z,24.6
2018-06-23T02:06:59.877Z,24.6
2018-06-23T02:07:49.337Z,24.6
2018-06-23T02:08:40.475Z,24.6
2018-06-23T02:09:29.217Z,24.6
2018-06-23T02:10:18.970Z,24.6
2018-06-23T02:11:09.412Z,24.6
2018-06-23T02:12:00.186Z,24.6
2018-06-23T02:12:49.598Z,24.6
2018-06-23T02:13:40.352Z,24.6
2018-06-23T02:14:30.971Z,24.6
2018-06-23T02:15:20.110Z,24.6
2018-06-23T02:16:09.959Z,24.6
2018-06-23T02:17:01.403Z,24.6
2018-06-23T02:17:50.642Z,24.6
2018-06-23T02:18:40.937Z,24.6
2018-06-23T02:19:30.005Z,24.6
2018-06-23T02:20:19.718Z,24.6
2018-06-23T02:21:11.227Z,24.6
2018-06-23T02:22:00.655Z,24.6
2018-06-23T02:22:52.124Z,24.6
2018-06-23T02:23:41.338Z,24.6
2018-06-23T02:24:31.532Z,24.6
2018-06-23T02:25:22.061Z,24.6
2018-06-23T02:26:11.471Z,24.6
2018-06-23T02:27:01.908Z,24.6
2018-06-23T02:27:52.208Z,24.6
2018-06-23T02:28:41.229Z,24.6
2018-06-23T02:29:31.920Z,24.6
2018-06-23T02:30:21.358Z,24.6
2018-06-23T02:31:12.070Z,24.6
2018-06-23T02:32:02.071Z,24.6
2018-06-23T02:32:51.735Z,24.6
2018-06-23T02:33:43.020Z,24.6
2018-06-23T02:34:32.274Z,24.6
2018-06-23T02:35:22.606Z,24.6
2018-06-23T02:36:12.582Z,24.6
2018-06-23T02:37:02.442Z,24.6
2018-06-23T02:37:52.221Z,24.6
2018-06-23T02:38:43.102Z,24.6
2018-06-23T02:39:31.512Z,24.6
2018-06-23T02:40:21.804Z,24.6
2018-06-23T02:41:11.880Z,24.6
2018-06-23T02:42:03.354Z,24.6
2018-06-23T02:42:53.373Z,24.6
2018-06-23T02:43:42.748Z,24.6
2018-06-23T02:44:33.196Z,24.6
2018-06-23T02:45:23.606Z,24.6
2018-06-23T02:46:13.636Z,24.6
2018-06-23T02:47:02.681Z,24.6
2018-06-23T02:47:52.910Z,24.6
2018-06-23T02:48:42.813Z,24.6
2018-06-23T02:49:33.625Z,24.6
2018-06-23T02:50:23.995Z,24.6
2018-06-23T02:51:12.760Z,24.6
2018-06-23T02:52:03.542Z,24.6
2018-06-23T02:52:53.760Z,24.6
2018-06-23T02:53:43.024Z,24.6
2018-06-23T02:54:33.808Z,24.6
2018-06-23T02:55:24.350Z,24.6
2018-06-23T02:56:14.140Z,24.6
2018-06-23T02:57:03.160Z,24.6
2018-06-23T02:57:52.647Z,24.6
2018-06-23T02:58:43.852Z,24.6
2018-06-23T02:59:33.814Z,24.6
2018-06-23T03:00:24.154Z,24.6
2018-06-23T03:01:13.515Z,24.6
2018-06-23T03:02:04.008Z,24.6
2018-06-23T03:02:54.492Z,24.6
2018-06-23T03:03:44.098Z,24.6
2018-06-23T03:04:32.867Z,24.6
2018-06-23T03:05:24.120Z,24.6
2018-06-23T03:06:14.364Z,24.6
2018-06-23T03:07:03.964Z,24.6
2018-06-23T03:07:55.034Z,24.6
2018-06-23T03:08:45.132Z,24.6
2018-06-23T03:09:34.660Z,24.6
2018-06-23T03:10:24.413Z,24.6
2018-06-23T03:11:14.277Z,24.6
2018-06-23T03:12:04.847Z,24.6
2018-06-23T03:12:55.215Z,24.6
2018-06-23T03:13:44.697Z,24.6
2018-06-23T03:14:34.521Z,24.6
2018-06-23T03:15:25.039Z,24.6
2018-06-23T03:16:14.142Z,24.6
2018-06-23T03:17:03.254Z,24.6
2018-06-23T03:17:55.566Z,24.6
2018-06-23T03:18:45.045Z,24.6
2018-06-23T03:19:35.741Z,24.6
2018-06-23T03:20:24.877Z,24.6
2018-06-23T03:21:14.993Z,24.6
2018-06-23T03:22:05.346Z,24.6
2018-06-23T03:22:55.621Z,24.5
2018-06-23T03:23:45.901Z,24.6
2018-06-23T03:24:34.951Z,24.6
2018-06-23T03:25:25.753Z,24.5
2018-06-23T03:26:15.565Z,24.6
2018-06-23T03:27:05.953Z,24.6
2018-06-23T03:27:55.434Z,24.6
2018-06-23T03:28:46.043Z,24.6
2018-06-23T03:29:35.277Z,24.6
2018-06-23T03:30:26.821Z,24.6
2018-06-23T03:31:16.123Z,24.6
2018-06-23T03:32:06.392Z,24.5
2018-06-23T03:32:56.145Z,24.5
2018-06-23T03:33:45.874Z,24.6
2018-06-23T03:34:36.227Z,24.6
2018-06-23T03:35:26.614Z,24.6
2018-06-23T03:36:16.428Z,24.5
2018-06-23T03:37:05.663Z,24.6
2018-06-23T03:37:56.810Z,24.6
2018-06-23T03:38:46.778Z,24.6
2018-06-23T03:39:36.030Z,24.6
2018-06-23T03:40:26.410Z,24.6
2018-06-23T03:41:17.010Z,24.5
2018-06-23T03:42:06.506Z,24.5
2018-06-23T03:42:57.592Z,24.5
2018-06-23T03:43:46.341Z,24.6
2018-06-23T03:44:37.203Z,24.5
2018-06-23T03:45:27.068Z,24.5
2018-06-23T03:46:16.784Z,24.6
2018-06-23T03:47:07.460Z,24.5
2018-06-23T03:47:57.784Z,24.5
2018-06-23T03:48:47.338Z,24.5
2018-06-23T03:49:37.884Z,24.6
2018-06-23T03:50:27.956Z,24.5
2018-06-23T03:51:18.101Z,24.5
2018-06-23T03:52:06.751Z,24.5
2018-06-23T03:52:57.343Z,24.5
2018-06-23T03:53:46.606Z,24.5
2018-06-23T03:54:38.275Z,24.5
2018-06-23T03:55:28.359Z,24.5
2018-06-23T03:56:17.321Z,24.5
2018-06-23T03:57:08.201Z,24.5
2018-06-23T03:57:57.685Z,24.5
2018-06-23T03:58:48.642Z,24.5
2018-06-23T03:59:38.424Z,24.5
2018-06-23T04:00:28.252Z,24.5
2018-06-23T04:01:17.960Z,24.5
2018-06-23T04:02:08.872Z,24.5
2018-06-23T04:02:58.680Z,24.5
2018-06-23T04:03:49.273Z,24.5
2018-06-23T04:04:38.763Z,24.5
2018-06-23T04:05:28.576Z,24.5
2018-06-23T04:06:18.055Z,24.5
2018-06-23T04:07:08.561Z,24.5
2018-06-23T04:07:58.702Z,24.5
2018-06-23T04:08:48.832Z,24.5
2018-06-23T04:09:38.554Z,24.5
2018-06-23T04:10:29.512Z,24.5
2018-06-23T04:11:18.752Z,24.5
2018-06-23T04:12:09.619Z,24.5
2018-06-23T04:12:59.403Z,24.5
2018-06-23T04:13:49.425Z,24.5
2018-06-23T04:14:39.255Z,24.5
2018-06-23T04:15:29.542Z,24.5
2018-06-23T04:16:20.368Z,24.5
2018-06-23T04:17:10.802Z,24.5
2018-06-23T04:18:00.083Z,24.5
2018-06-23T04:18:49.972Z,24.5
2018-06-23T04:19:40.188Z,24.5
2018-06-23T04:20:29.934Z,24.5
2018-06-23T04:21:20.025Z,24.5
2018-06-23T04:22:10.602Z,24.5
2018-06-23T04:23:00.375Z,24.5
2018-06-23T04:23:49.938Z,24.5
2018-06-23T04:24:39.676Z,24.4
2018-06-23T04:25:29.447Z,24.4
2018-06-23T04:26:20.596Z,24.4
2018-06-23T04:27:10.677Z,24.4
2018-06-23T04:28:01.508Z,24.5
2018-06-23T04:28:50.704Z,24.5
2018-06-23T04:29:40.853Z,24.4
2018-06-23T04:30:30.944Z,24.5
2018-06-23T04:31:20.450Z,24.4
2018-06-23T04:32:11.894Z,24.5
2018-06-23T04:33:01.047Z,24.4
2018-06-23T04:33:50.659Z,24.4
2018-06-23T04:34:41.776Z,24.4
2018-06-23T04:35:30.776Z,24.4
2018-06-23T04:36:21.429Z,24.4
2018-06-23T04:37:11.431Z,24.4
2018-06-23T04:38:01.362Z,24.4
2018-06-23T04:38:51.663Z,24.5
2018-06-23T04:39:40.553Z,24.4
2018-06-23T04:40:30.677Z,24.5
2018-06-23T04:41:22.264Z,24.4
2018-06-23T04:42:12.613Z,24.4
2018-06-23T04:43:01.658Z,24.5
2018-06-23T04:43:51.100Z,24.5
2018-06-23T04:44:42.637Z,24.4
2018-06-23T04:45:31.720Z,24.4
2018-06-23T04:46:22.089Z,24.4
2018-06-23T04:47:11.862Z,24.4
2018-06-23T04:48:02.457Z,24.5
2018-06-23T04:48:52.874Z,24.4
2018-06-23T04:49:42.150Z,24.5
2018-06-23T04:50:32.091Z,24.4
2018-06-23T04:51:23.021Z,24.4
2018-06-23T04:52:11.928Z,24.4
2018-06-23T04:53:02.046Z,24.4
2018-06-23T04:53:52.889Z,24.4
2018-06-23T04:54:42.207Z,24.4
2018-06-23T04:55:33.326Z,24.4
2018-06-23T04:56:23.372Z,24.4
2018-06-23T04:57:13.155Z,24.4
2018-06-23T04:58:04.105Z,24.4
2018-06-23T04:58:52.477Z,24.4
2018-06-23T04:59:43.973Z,24.4
2018-06-23T05:00:35.006Z,24.4
2018-06-23T05:01:23.237Z,24.4
2018-06-23T05:02:13.777Z,24.4
2018-06-23T05:03:03.592Z,24.4
2018-06-23T05:03:53.940Z,24.4
2018-06-23T05:04:42.321Z,24.5
2018-06-23T05:05:33.262Z,24.4
2018-06-23T05:06:23.096Z,24.4
2018-06-23T05:07:13.164Z,24.5
2018-06-23T05:08:03.484Z,24.4
2018-06-23T05:08:53.673Z,24.4
2018-06-23T05:09:44.186Z,24.4
2018-06-23T05:10:32.853Z,24.4
2018-06-23T05:11:23.245Z,24.4
2018-06-23T05:12:14.078Z,24.4
2018-06-23T05:13:03.532Z,24.5
2018-06-23T05:13:53.955Z,24.5
2018-06-23T05:14:44.293Z,24.5
2018-06-23T05:15:33.579Z,24.4
2018-06-23T05:16:24.941Z,24.5
2018-06-23T05:17:14.965Z,24.5
2018-06-23T05:18:04.239Z,24.5
2018-06-23T05:18:54.530Z,24.4
2018-06-23T05:19:43.577Z,24.5
2018-06-23T05:20:34.283Z,24.4
2018-06-23T05:21:25.304Z,24.5
2018-06-23T05:22:14.377Z,24.5
2018-06-23T05:23:04.417Z,24.5
2018-06-23T05:23:55.284Z,24.5
2018-06-23T05:24:45.067Z,24.5
2018-06-23T05:25:34.272Z,24.5
2018-06-23T05:26:25.201Z,24.5
2018-06-23T05:27:14.763Z,24.5
2018-06-23T05:28:05.282Z,24.5
2018-06-23T05:28:55.451Z,24.4
2018-06-23T05:29:44.655Z,24.5
2018-06-23T05:30:35.996Z,24.5
2018-06-23T05:31:25.590Z,24.5
2018-06-23T05:32:15.035Z,24.4
2018-06-23T05:33:04.571Z,24.5
2018-06-23T05:33:54.402Z,24.5
2018-06-23T05:34:45.567Z,24.5
2018-06-23T05:35:35.094Z,24.5
2018-06-23T05:36:26.230Z,24.5
2018-06-23T05:37:16.430Z,24.5
2018-06-23T05:38:06.075Z,24.5
2018-06-23T05:38:55.860Z,24.5
2018-06-23T05:39:45.636Z,24.5
2018-06-23T05:40:36.018Z,24.5
2018-06-23T05:41:26.105Z,24.5
2018-06-23T05:42:15.263Z,24.5
2018-06-23T05:43:06.459Z,24.5
2018-06-23T05:43:55.706Z,24.5
2018-06-23T05:44:46.056Z,24.5
2018-06-23T05:45:36.655Z,24.5
2018-06-23T05:46:25.625Z,24.5
2018-06-23T05:47:16.773Z,24.5
2018-06-23T05:48:06.527Z,24.5
2018-06-23T05:48:57.198Z,24.5
2018-06-23T05:49:47.755Z,24.5
2018-06-23T05:50:36.074Z,24.6
2018-06-23T05:51:29.131Z,24.6
2018-06-23T05:52:16.884Z,24.5
2018-06-23T05:53:07.101Z,24.6
2018-06-23T05:53:57.728Z,24.5
2018-06-23T05:54:47.244Z,24.5
2018-06-23T05:55:37.408Z,24.5
2018-06-23T05:56:28.273Z,24.5
2018-06-23T05:57:18.290Z,24.5
2018-06-23T05:58:06.384Z,24.5
2018-06-23T05:58:58.156Z,24.5
2018-06-23T05:59:48.487Z,24.4
2018-06-23T06:00:38.579Z,24.4
2018-06-23T06:01:27.148Z,24.5
2018-06-23T06:02:17.865Z,24.5
2018-06-23T06:03:08.149Z,24.4
2018-06-23T06:03:58.512Z,24.4
2018-06-23T06:04:48.662Z,24.4
2018-06-23T06:05:38.331Z,24.4
2018-06-23T06:06:27.909Z,24.4
2018-06-23T06:07:19.074Z,24.4
2018-06-23T06:08:08.914Z,24.4
2018-06-23T06:08:58.879Z,24.4
2018-06-23T06:09:48.643Z,24.4
2018-06-23T06:10:38.407Z,24.4
2018-06-23T06:11:28.775Z,24.4
2018-06-23T06:12:19.129Z,24.4
2018-06-23T06:13:09.238Z,24.4
2018-06-23T06:13:59.349Z,24.4
2018-06-23T06:14:48.779Z,24.4
2018-06-23T06:15:38.827Z,24.4
2018-06-23T06:16:29.121Z,24.4
2018-06-23T06:17:19.760Z,24.4
2018-06-23T06:18:09.268Z,24.4
2018-06-23T06:18:59.290Z,24.4
2018-06-23T06:19:49.631Z,24.4
2018-06-23T06:20:39.738Z,24.4
2018-06-23T06:21:29.492Z,24.4
2018-06-23T06:22:19.298Z,24.4
2018-06-23T06:23:09.089Z,24.4
2018-06-23T06:24:00.917Z,24.4
2018-06-23T06:24:49.991Z,24.4
2018-06-23T06:25:38.723Z,24.4
2018-06-23T06:26:30.141Z,24.4
2018-06-23T06:27:20.028Z,24.4
2018-06-23T06:28:10.254Z,24.4
2018-06-23T06:29:00.566Z,24.4
2018-06-23T06:29:49.348Z,24.4
2018-06-23T06:30:40.216Z,24.4
2018-06-23T06:31:30.815Z,24.4
2018-06-23T06:32:20.080Z,24.4
2018-06-23T06:33:10.443Z,24.4
2018-06-23T06:33:59.967Z,24.4
2018-06-23T06:34:51.132Z,24.4
2018-06-23T06:35:40.924Z,24.4
2018-06-23T06:36:29.825Z,24.4
2018-06-23T06:37:19.937Z,24.4
2018-06-23T06:38:09.463Z,24.4
2018-06-23T06:39:01.225Z,24.4
2018-06-23T06:39:51.200Z,24.4
2018-06-23T06:40:41.068Z,24.4
2018-06-23T06:41:30.760Z,24.4
2018-06-23T06:42:20.625Z,24.4
2018-06-23T06:43:11.473Z,24.4
2018-06-23T06:44:00.690Z,24.4
2018-06-23T06:44:51.767Z,24.4
2018-06-23T06:45:40.871Z,24.4
2018-06-23T06:46:30.947Z,24.4
2018-06-23T06:47:20.477Z,24.4
2018-06-23T06:48:11.594Z,24.4
2018-06-23T06:49:00.750Z,24.4
2018-06-23T06:49:50.875Z,24.4
2018-06-23T06:50:40.946Z,24.3
2018-06-23T06:51:31.550Z,24.3
2018-06-23T06:52:22.210Z,24.4
2018-06-23T06:53:11.357Z,24.3
2018-06-23T06:54:02.579Z,24.3
2018-06-23T06:54:52.124Z,24.4
2018-06-23T06:55:42.639Z,24.3
2018-06-23T06:56:32.534Z,24.3
2018-06-23T06:57:23.467Z,24.3
2018-06-23T06:58:11.757Z,24.3
2018-06-23T06:59:02.862Z,24.3
2018-06-23T06:59:52.266Z,24.3
2018-06-23T07:00:42.520Z,24.3
2018-06-23T07:01:32.005Z,24.3
2018-06-23T07:02:22.748Z,24.3
2018-06-23T07:03:12.408Z,24.3
2018-06-23T07:04:03.006Z,24.3
2018-06-23T07:04:53.381Z,24.3
2018-06-23T07:05:43.408Z,24.3
2018-06-23T07:06:32.409Z,24.3
2018-06-23T07:07:23.274Z,24.3
2018-06-23T07:08:13.046Z,24.3
2018-06-23T07:09:04.208Z,24.3
2018-06-23T07:09:52.967Z,24.3
2018-06-23T07:10:43.303Z,24.3
2018-06-23T07:11:33.074Z,24.3
2018-06-23T07:12:23.742Z,24.3
2018-06-23T07:13:13.548Z,24.3
2018-06-23T07:14:03.780Z,24.3
2018-06-23T07:14:53.572Z,24.3
2018-06-23T07:15:45.150Z,24.3
2018-06-23T07:16:33.154Z,24.3
2018-06-23T07:17:24.313Z,24.3
2018-06-23T07:18:14.097Z,24.3
2018-06-23T07:19:04.422Z,24.3
2018-06-23T07:19:53.927Z,24.2
2018-06-23T07:20:43.664Z,24.2
2018-06-23T07:21:34.114Z,24.2
2018-06-23T07:22:24.113Z,24.2
2018-06-23T07:23:14.158Z,24.3
2018-06-23T07:24:06.831Z,24.2
2018-06-23T07:24:53.841Z,24.3
2018-06-23T07:25:43.801Z,24.2
2018-06-23T07:26:34.389Z,24.2
2018-06-23T07:27:23.709Z,24.3
2018-06-23T07:28:13.833Z,24.2
2018-06-23T07:29:04.864Z,24.2
2018-06-23T07:29:54.688Z,24.2
2018-06-23T07:30:45.965Z,24.2
2018-06-23T07:31:34.814Z,24.2
2018-06-23T07:32:24.864Z,24.2
2018-06-23T07:33:15.225Z,24.2
2018-06-23T07:34:04.967Z,24.2
2018-06-23T07:34:58.127Z,24.2
2018-06-23T07:35:44.557Z,24.2
2018-06-23T07:36:35.461Z,24.2
2018-06-23T07:37:25.545Z,24.2
2018-06-23T07:38:15.057Z,24.2
2018-06-23T07:39:05.646Z,24.2
2018-06-23T07:39:54.856Z,24.2
2018-06-23T07:40:46.530Z,24.1
2018-06-23T07:41:35.066Z,24.1
2018-06-23T07:42:25.684Z,24.2
2018-06-23T07:43:14.319Z,24.2
2018-06-23T07:44:04.966Z,24.1
2018-06-23T07:44:54.425Z,24.2
2018-06-23T07:45:45.656Z,24.2
2018-06-23T07:46:35.581Z,24.1
2018-06-23T07:47:26.469Z,24.2
2018-06-23T07:48:16.051Z,24.2
2018-06-23T07:49:06.188Z,24.1
2018-06-23T07:49:56.175Z,24.1
2018-06-23T07:50:46.623Z,24.1
2018-06-23T07:51:36.355Z,24.2
2018-06-23T07:52:26.344Z,24.2
2018-06-23T07:53:15.078Z,24.1
2018-06-23T07:54:05.950Z,24.2
2018-06-23T07:54:55.978Z,24.1
2018-06-23T07:55:46.658Z,24.1
2018-06-23T07:56:36.692Z,24.1
2018-06-23T07:57:27.270Z,24.1
2018-06-23T07:58:16.494Z,24.1
2018-06-23T07:59:06.850Z,24.1
2018-06-23T07:59:55.796Z,24.1
2018-06-23T08:00:46.170Z,24.1
2018-06-23T08:01:37.807Z,24.1
2018-06-23T08:02:27.072Z,24.1
2018-06-23T08:03:16.899Z,24.1
2018-06-23T08:04:06.986Z,24.1
2018-06-23T08:04:57.542Z,24.1
2018-06-23T08:05:46.520Z,24.1
2018-06-23T08:06:37.470Z,24.1
2018-06-23T08:07:26.945Z,24.1
2018-06-23T08:08:17.244Z,24.1
2018-06-23T08:09:07.394Z,24.1
2018-06-23T08:09:57.419Z,24.1
2018-06-23T08:10:47.179Z,24.1
2018-06-23T08:11:38.513Z,24.1
2018-06-23T08:12:27.942Z,24.1
2018-06-23T08:13:18.395Z,24.1
2018-06-23T08:14:08.260Z,24.1
2018-06-23T08:14:58.081Z,24.1
2018-06-23T08:15:48.031Z,24.1
2018-06-23T08:16:38.121Z,24.1
2018-06-23T08:17:28.570Z,24.1
2018-06-23T08:18:18.826Z,24.1
2018-06-23T08:19:08.359Z,24.1
2018-06-23T08:19:58.189Z,24.1
2018-06-23T08:20:47.695Z,24.1
2018-06-23T08:21:38.867Z,24.1
2018-06-23T08:22:28.849Z,24.1
2018-06-23T08:23:17.585Z,24.1
2018-06-23T08:24:08.856Z,24.1
2018-06-23T08:24:59.826Z,24.1
2018-06-23T08:25:48.550Z,24.1
2018-06-23T08:26:42.600Z,24.1
2018-06-23T08:27:29.569Z,24.1
2018-06-23T08:28:19.118Z,24.1
2018-06-23T08:29:09.357Z,24.1
2018-06-23T08:29:59.751Z,24.1
2018-06-23T08:30:49.225Z,24.1
2018-06-23T08:31:39.379Z,24.1
2018-06-23T08:32:29.334Z,24.1
2018-06-23T08:33:19.678Z,24.1
2018-06-23T08:34:08.891Z,24.1
2018-06-23T08:34:59.744Z,24.1
2018-06-23T08:35:48.774Z,24.1
2018-06-23T08:36:39.947Z,24.1
2018-06-23T08:37:29.812Z,24.1
2018-06-23T08:38:20.108Z,24.1
2018-06-23T08:39:10.150Z,24.1
2018-06-23T08:40:00.167Z,24.1
2018-06-23T08:40:50.290Z,24.1
2018-06-23T08:41:40.309Z,24.1
2018-06-23T08:42:29.872Z,24.1
2018-06-23T08:43:20.680Z,24.1
2018-06-23T08:44:10.205Z,24.1
2018-06-23T08:44:59.992Z,24.1
2018-06-23T08:45:50.372Z,24.1
2018-06-23T08:46:40.970Z,24.2
2018-06-23T08:47:30.217Z,24.2
2018-06-23T08:48:20.849Z,24.2
2018-06-23T08:49:12.436Z,24.2
2018-06-23T08:50:00.733Z,24.2
2018-06-23T08:50:50.434Z,24.2
2018-06-23T08:51:40.215Z,24.2
2018-06-23T08:52:30.291Z,24.2
2018-06-23T08:53:20.872Z,24.2
2018-06-23T08:54:10.398Z,24.2
2018-06-23T08:55:01.319Z,24.2
2018-06-23T08:55:51.336Z,24.2
2018-06-23T08:56:40.609Z,24.2
2018-06-23T08:57:31.777Z,24.2
2018-06-23T08:58:21.023Z,24.2
2018-06-23T08:59:11.090Z,24.2
2018-06-23T09:00:01.372Z,24.2
2018-06-23T09:00:52.009Z,24.2
2018-06-23T09:01:41.726Z,24.2
2018-06-23T09:02:31.908Z,24.2
2018-06-23T09:03:21.354Z,24.2
2018-06-23T09:04:11.555Z,24.2
2018-06-23T09:05:02.295Z,24.2
2018-06-23T09:05:52.456Z,24.3
2018-06-23T09:06:41.860Z,24.2
2018-06-23T09:07:31.119Z,24.2
2018-06-23T09:08:21.771Z,24.3
2018-06-23T09:09:12.413Z,24.2
2018-06-23T09:10:01.125Z,24.3
2018-06-23T09:10:51.379Z,24.3
2018-06-23T09:11:42.814Z,24.2
2018-06-23T09:12:32.732Z,24.3
2018-06-23T09:13:22.416Z,24.2
2018-06-23T09:14:12.461Z,24.2
2018-06-23T09:15:02.347Z,24.3
2018-06-23T09:15:53.131Z,24.3
2018-06-23T09:16:42.934Z,24.3
2018-06-23T09:17:32.788Z,24.2
2018-06-23T09:18:22.221Z,24.3
2018-06-23T09:19:12.570Z,24.3
2018-06-23T09:20:03.213Z,24.3
2018-06-23T09:20:53.562Z,24.3
2018-06-23T09:21:42.204Z,24.3
2018-06-23T09:22:32.888Z,24.3
2018-06-23T09:23:22.967Z,24.3
2018-06-23T09:24:13.488Z,24.3
2018-06-23T09:25:02.504Z,24.3
2018-06-23T09:25:54.683Z,24.3
2018-06-23T09:26:43.480Z,24.3
2018-06-23T09:27:33.711Z,24.3
2018-06-23T09:28:23.226Z,24.3
2018-06-23T09:29:13.560Z,24.3
2018-06-23T09:30:03.659Z,24.3
2018-06-23T09:30:53.447Z,24.3
2018-06-23T09:31:44.046Z,24.3
2018-06-23T09:32:34.165Z,24.3
2018-06-23T09:33:24.479Z,24.3
2018-06-23T09:34:13.968Z,24.3
2018-06-23T09:35:03.780Z,24.3
2018-06-23T09:35:54.656Z,24.3
2018-06-23T09:36:43.963Z,24.3
2018-06-23T09:37:34.503Z,24.3
2018-06-23T09:38:24.008Z,24.3
2018-06-23T09:39:14.310Z,24.3
2018-06-23T09:40:03.938Z,24.3
2018-06-23T09:40:53.669Z,24.3
2018-06-23T09:41:43.221Z,24.3
2018-06-23T09:42:33.221Z,24.3
2018-06-23T09:43:24.653Z,24.3
2018-06-23T09:44:13.905Z,24.3
2018-06-23T09:45:03.442Z,24.3
2018-06-23T09:45:56.301Z,24.3
2018-06-23T09:46:44.099Z,24.3
2018-06-23T09:47:34.778Z,24.3
2018-06-23T09:48:24.751Z,24.3
2018-06-23T09:49:14.418Z,24.3
2018-06-23T09:50:04.944Z,24.3
2018-06-23T09:50:54.966Z,24.3
2018-06-23T09:51:44.481Z,24.3
2018-06-23T09:52:35.396Z,24.3
2018-06-23T09:53:24.300Z,24.3
2018-06-23T09:54:15.475Z,24.3
2018-06-23T09:55:05.009Z,24.4
2018-06-23T09:55:56.191Z,24.3
2018-06-23T09:56:45.202Z,24.3
2018-06-23T09:57:35.190Z,24.3
2018-06-23T09:58:25.298Z,24.3
2018-06-23T09:59:15.867Z,24.3
2018-06-23T10:00:05.673Z,24.3
2018-06-23T10:00:56.076Z,24.3
2018-06-23T10:01:45.806Z,24.3
2018-06-23T10:02:35.859Z,24.3
2018-06-23T10:03:26.910Z,24.3
2018-06-23T10:04:15.738Z,24.3
2018-06-23T10:05:05.237Z,24.3
2018-06-23T10:05:56.196Z,24.3
2018-06-23T10:06:46.946Z,24.3
2018-06-23T10:07:36.477Z,24.3
2018-06-23T10:08:26.640Z,24.3
2018-06-23T10:09:16.686Z,24.3
2018-06-23T10:10:06.959Z,24.3
2018-06-23T10:10:56.756Z,24.3
2018-06-23T10:11:46.020Z,24.3
2018-06-23T10:12:36.378Z,24.3
2018-06-23T10:13:26.377Z,24.3
2018-06-23T10:14:17.009Z,24.4
2018-06-23T10:15:06.740Z,24.3
2018-06-23T10:15:57.183Z,24.3
2018-06-23T10:16:45.597Z,24.4
2018-06-23T10:17:37.271Z,24.4
2018-06-23T10:18:26.156Z,24.3
2018-06-23T10:19:17.102Z,24.3
2018-06-23T10:20:06.472Z,24.4
2018-06-23T10:20:57.775Z,24.4
2018-06-23T10:21:47.994Z,24.4
2018-06-23T10:22:37.419Z,24.3
2018-06-23T10:23:27.424Z,24.4
2018-06-23T10:24:17.514Z,24.4
2018-06-23T10:25:07.838Z,24.4
2018-06-23T10:25:57.868Z,24.4
2018-06-23T10:26:47.895Z,24.3
2018-06-23T10:27:38.360Z,24.3
2018-06-23T10:28:28.041Z,24.4
2018-06-23T10:29:18.423Z,24.4
2018-06-23T10:30:06.855Z,24.4
2018-06-23T10:30:57.400Z,24.4
2018-06-23T10:31:48.576Z,24.3
2018-06-23T10:32:38.022Z,24.4
2018-06-23T10:33:28.659Z,24.4
2018-06-23T10:34:19.039Z,24.3
2018-06-23T10:35:07.507Z,24.4
2018-06-23T10:35:58.635Z,24.4
2018-06-23T10:36:48.431Z,24.4
2018-06-23T10:37:38.747Z,24.4
2018-06-23T10:38:28.665Z,24.4
2018-06-23T10:39:18.643Z,24.4
2018-06-23T10:40:11.895Z,24.4
2018-06-23T10:40:58.466Z,24.4
2018-06-23T10:41:49.084Z,24.4
2018-06-23T10:42:39.678Z,24.4
2018-06-23T10:43:28.366Z,24.4
2018-06-23T10:44:18.522Z,24.4
2018-06-23T10:45:09.106Z,24.3
2018-06-23T10:45:58.982Z,24.4
2018-06-23T10:46:48.712Z,24.4
2018-06-23T10:47:38.919Z,24.4
2018-06-23T10:48:28.601Z,24.4
2018-06-23T10:49:19.477Z,24.4
2018-06-23T10:50:09.463Z,24.4
2018-06-23T10:50:58.621Z,24.4
2018-06-23T10:51:48.967Z,24.3
2018-06-23T10:52:39.335Z,24.3
2018-06-23T10:53:29.984Z,24.3
2018-06-23T10:54:20.151Z,24.3
2018-06-23T10:55:09.555Z,24.4
2018-06-23T10:55:59.345Z,24.3
2018-06-23T10:56:49.938Z,24.3
2018-06-23T10:57:39.506Z,24.3
2018-06-23T10:58:30.333Z,24.3
2018-06-23T10:59:19.953Z,24.3
2018-06-23T11:00:09.653Z,24.3
2018-06-23T11:01:01.066Z,24.3
2018-06-23T11:01:50.617Z,24.3
2018-06-23T11:02:40.035Z,24.3
2018-06-23T11:03:30.972Z,24.3
2018-06-23T11:04:21.052Z,24.3
2018-06-23T11:05:11.856Z,24.3
2018-06-23T11:06:00.978Z,24.3